Time;durP1;ratioP1;P1;durP2;ratioP2;P2;SDS_P1;SDS_P2;PMS_P1;PMS_P2;Temp;Humidity;BMP_temperature;BMP_pressure;BME280_temperature;BME280_humidity;BME280_pressure;Samples;Min_cycle;Max_cycle;Signal;HPM_P1;HPM_P2
2019/04/14 00:05:15;;;;;;;5;4.6;;;;;;;22.26;25.87695;1005.049;;;;
2019/04/14 00:08:30;;;;;;;4.7;4.3;;;;;;;22.26;25.87695;1005.057;;;;
2019/04/14 00:11:45;;;;;;;4.6;4.2;;;;;;;22.26;25.88867;1004.995;;;;
2019/04/14 00:15:02;;;;;;;4.7;4.4;;;;;;;22.25;25.88867;1005.037;;;;
2019/04/14 00:18:17;;;;;;;4.4;4.1;;;;;;;22.26;25.87695;1004.916;;;;
2019/04/14 00:21:33;;;;;;;4.5;4.1;;;;;;;22.26;25.88867;1004.852;;;;
2019/04/14 00:24:52;;;;;;;4.2;3.9;;;;;;;22.25;25.87695;1004.777;;;;
2019/04/14 00:28:06;;;;;;;4.8;4.4;;;;;;;22.25;25.88867;1004.845;;;;
2019/04/14 00:31:20;;;;;;;4.5;4.2;;;;;;;22.25;25.91211;1004.797;;;;
2019/04/14 00:35:00;;;;;;;4.2;3.9;;;;;;;22.26;25.88867;1004.776;;;;
2019/04/14 00:38:33;;;;;;;4.6;4.3;;;;;;;22.23;25.92285;1004.759;;;;
2019/04/14 00:41:53;;;;;;;4.5;4.1;;;;;;;22.24;25.91113;1004.716;;;;
2019/04/14 00:45:22;;;;;;;4.8;4.4;;;;;;;22.24;25.91113;1004.652;;;;
2019/04/14 00:48:36;;;;;;;4.3;4;;;;;;;22.24;25.91113;1004.624;;;;
2019/04/14 00:51:53;;;;;;;5;4.5;;;;;;;22.25;25.92383;1004.633;;;;
2019/04/14 00:55:07;;;;;;;4.6;4.2;;;;;;;22.25;25.91211;1004.564;;;;
2019/04/14 00:58:21;;;;;;;4.3;4;;;;;;;22.24;25.92285;1004.589;;;;
2019/04/14 01:01:36;;;;;;;4.5;4.1;;;;;;;22.23;25.93457;1004.626;;;;
2019/04/14 01:04:50;;;;;;;4.6;4.2;;;;;;;22.26;25.91211;1004.653;;;;
2019/04/14 01:08:09;;;;;;;4.3;4;;;;;;;22.25;25.91211;1004.654;;;;
2019/04/14 01:11:22;;;;;;;4.3;4;;;;;;;22.25;25.91211;1004.613;;;;
2019/04/14 01:14:36;;;;;;;4.3;4;;;;;;;22.26;25.90039;1004.702;;;;
2019/04/14 01:17:51;;;;;;;4.2;3.9;;;;;;;22.25;25.91211;1004.699;;;;
2019/04/14 01:21:03;;;;;;;4.8;3.9;;;;;;;22.24;25.92285;1004.697;;;;
2019/04/14 01:24:20;;;;;;;4.5;4.2;;;;;;;22.23;25.93457;1004.663;;;;
2019/04/14 01:27:35;;;;;;;4.8;4.4;;;;;;;22.24;25.93457;1004.661;;;;
2019/04/14 01:30:50;;;;;;;4.3;4;;;;;;;22.26;25.91211;1004.653;;;;
2019/04/14 01:34:03;;;;;;;4.4;4;;;;;;;22.26;25.92383;1004.625;;;;
2019/04/14 01:37:17;;;;;;;4.5;4.2;;;;;;;22.26;25.92383;1004.629;;;;
2019/04/14 01:40:33;;;;;;;4.4;4.1;;;;;;;22.26;25.92383;1004.639;;;;
2019/04/14 01:43:49;;;;;;;4.1;3.8;;;;;;;22.26;25.91211;1004.694;;;;
2019/04/14 01:47:05;;;;;;;4.4;4.1;;;;;;;22.26;25.91211;1004.711;;;;
2019/04/14 01:50:26;;;;;;;4.1;3.7;;;;;;;22.25;25.92383;1004.636;;;;
2019/04/14 01:53:57;;;;;;;4.3;4;;;;;;;22.25;25.93555;1004.59;;;;
2019/04/14 01:57:23;;;;;;;4.2;3.9;;;;;;;22.25;25.94727;1004.633;;;;
2019/04/14 02:00:48;;;;;;;4.5;4.2;;;;;;;22.24;25.94629;1004.698;;;;
2019/04/14 02:04:07;;;;;;;4.1;3.8;;;;;;;22.24;25.95801;1004.644;;;;
2019/04/14 02:07:21;;;;;;;4.4;4.1;;;;;;;22.23;25.98145;1004.692;;;;
2019/04/14 02:10:37;;;;;;;4.1;3.8;;;;;;;22.23;25.98145;1004.692;;;;
2019/04/14 02:13:53;;;;;;;4.3;4;;;;;;;22.24;25.95898;1004.72;;;;
2019/04/14 02:17:12;;;;;;;4.1;3.8;;;;;;;22.22;26.00391;1004.676;;;;
2019/04/14 02:20:28;;;;;;;4.3;4;;;;;;;22.2;26.01563;1004.692;;;;
2019/04/14 02:23:41;;;;;;;4.4;4;;;;;;;22.2;26.02734;1004.614;;;;
2019/04/14 02:26:56;;;;;;;4.3;4;;;;;;;22.2;26.03809;1004.688;;;;
2019/04/14 02:30:10;;;;;;;4.4;4.1;;;;;;;22.18;26.04883;1004.695;;;;
2019/04/14 02:33:26;;;;;;;4.3;4;;;;;;;22.19;26.06152;1004.795;;;;
2019/04/14 02:36:40;;;;;;;4.2;3.9;;;;;;;22.18;26.06055;1004.773;;;;
2019/04/14 02:39:55;;;;;;;4.3;4;;;;;;;22.18;26.07227;1004.759;;;;
2019/04/14 02:43:10;;;;;;;4.3;4;;;;;;;22.19;26.0498;1004.721;;;;
2019/04/14 02:46:24;;;;;;;4.4;4.1;;;;;;;22.18;26.07227;1004.701;;;;
2019/04/14 02:49:39;;;;;;;4.3;4;;;;;;;22.21;26.03906;1004.763;;;;
2019/04/14 02:52:53;;;;;;;4.3;4;;;;;;;22.18;26.07227;1004.828;;;;
2019/04/14 02:56:08;;;;;;;4.2;3.9;;;;;;;22.17;26.0957;1004.722;;;;
2019/04/14 02:59:26;;;;;;;4.4;4.1;;;;;;;22.17;26.10742;1004.8;;;;
2019/04/14 03:02:39;;;;;;;4.4;4;;;;;;;22.17;26.0957;1004.798;;;;
2019/04/14 03:05:52;;;;;;;4.3;4;;;;;;;22.17;26.10742;1004.79;;;;
2019/04/14 03:09:08;;;;;;;4.7;4.4;;;;;;;22.17;26.10742;1004.771;;;;
2019/04/14 03:12:25;;;;;;;4.5;4.1;;;;;;;22.17;26.10742;1004.79;;;;
2019/04/14 03:15:40;;;;;;;4.1;3.8;;;;;;;22.18;26.1084;1004.865;;;;
2019/04/14 03:22:34;;;;;;;4.6;4.2;;;;;;;22.16;26.11914;1004.727;;;;
2019/04/14 03:25:58;;;;;;;4.4;4;;;;;;;22.18;26.1084;1004.711;;;;
2019/04/14 03:29:14;;;;;;;4.3;4;;;;;;;22.17;26.10742;1004.698;;;;
2019/04/14 03:32:27;;;;;;;4.2;3.9;;;;;;;22.17;26.10742;1004.685;;;;
2019/04/14 03:35:43;;;;;;;3.9;3.6;;;;;;;22.17;26.13086;1004.759;;;;
2019/04/14 03:38:58;;;;;;;4.3;4;;;;;;;22.17;26.11914;1004.776;;;;
2019/04/14 03:42:12;;;;;;;4.4;4.1;;;;;;;22.17;26.14258;1004.886;;;;
2019/04/14 03:45:27;;;;;;;4.8;4.4;;;;;;;22.18;26.09668;1004.797;;;;
2019/04/14 03:48:40;;;;;;;4.2;3.9;;;;;;;22.18;26.12012;1004.752;;;;
2019/04/14 03:51:54;;;;;;;4.3;4;;;;;;;22.17;26.13086;1004.69;;;;
2019/04/14 03:55:08;;;;;;;4.2;3.8;;;;;;;22.18;26.12012;1004.656;;;;
2019/04/14 03:58:24;;;;;;;4.4;4.1;;;;;;;22.17;26.13086;1004.681;;;;
2019/04/14 04:06:11;;;;;;;4;3.7;;;;;;;22.15;26.1416;1004.711;;;;
2019/04/14 04:09:30;;;;;;;4.4;4.1;;;;;;;22.17;26.14258;1004.872;;;;
2019/04/14 04:12:44;;;;;;;4.3;4;;;;;;;22.17;26.14258;1004.913;;;;
2019/04/14 04:16:13;;;;;;;4.1;3.8;;;;;;;22.16;26.1416;1004.942;;;;
2019/04/14 04:20:09;;;;;;;4.4;4.1;;;;;;;22.15;26.16504;1004.959;;;;
2019/04/14 04:23:41;;;;;;;4.5;4.1;;;;;;;22.17;26.13086;1004.917;;;;
2019/04/14 04:27:41;;;;;;;4.6;4.3;;;;;;;22.17;26.14258;1004.899;;;;
2019/04/14 04:29:45;;;;;;;4.8;4.4;;;;;;;22.17;26.13086;1004.958;;;;
2019/04/14 04:33:27;;;;;;;4.2;3.9;;;;;;;22.18;26.13184;1004.92;;;;
2019/04/14 04:36:48;;;;;;;4.3;3.9;;;;;;;22.17;26.14258;1004.808;;;;
2019/04/14 04:40:08;;;;;;;4.4;4.1;;;;;;;22.18;26.14355;1004.911;;;;
2019/04/14 04:43:24;;;;;;;4.1;3.8;;;;;;;22.15;26.21191;1004.927;;;;
2019/04/14 04:46:40;;;;;;;4.2;3.9;;;;;;;22.13;26.19922;1005.08;;;;
2019/04/14 04:49:55;;;;;;;4.1;3.8;;;;;;;22.13;26.21094;1005.153;;;;
2019/04/14 04:53:14;;;;;;;4;3.7;;;;;;;22.12;26.22266;1005.182;;;;
2019/04/14 04:56:29;;;;;;;4.2;3.9;;;;;;;22.12;26.22266;1005.178;;;;
2019/04/14 04:59:43;;;;;;;4.3;3.9;;;;;;;22.13;26.22266;1005.19;;;;
2019/04/14 05:03:01;;;;;;;4.8;4.2;;;;;;;22.14;26.21191;1005.247;;;;
2019/04/14 05:06:14;;;;;;;4.3;3.9;;;;;;;22.14;26.2002;1005.196;;;;
2019/04/14 05:13:06;;;;;;;4.3;3.9;;;;;;;22.16;26.20117;1005.211;;;;
2019/04/14 05:16:24;;;;;;;4.3;4;;;;;;;22.15;26.22363;1005.287;;;;
2019/04/14 05:19:36;;;;;;;3.9;3.6;;;;;;;22.15;26.20117;1005.217;;;;
2019/04/14 05:22:52;;;;;;;4.4;4.1;;;;;;;22.16;26.20117;1005.311;;;;
2019/04/14 05:26:07;;;;;;;4.7;4.3;;;;;;;22.16;26.18945;1005.27;;;;
2019/04/14 05:29:21;;;;;;;4;3.7;;;;;;;22.17;26.19043;1005.309;;;;
2019/04/14 05:32:35;;;;;;;4.1;3.8;;;;;;;22.18;26.17871;1005.308;;;;
2019/04/14 05:35:50;;;;;;;4.4;4.1;;;;;;;22.18;26.16699;1005.398;;;;
2019/04/14 05:39:06;;;;;;;4.3;4;;;;;;;22.18;26.16699;1005.408;;;;
2019/04/14 05:42:19;;;;;;;4.4;4.1;;;;;;;22.19;26.14355;1005.442;;;;
2019/04/14 05:45:35;;;;;;;4.5;4.2;;;;;;;22.2;26.13281;1005.454;;;;
2019/04/14 05:48:49;;;;;;;4.6;4.2;;;;;;;22.2;26.13281;1005.38;;;;
2019/04/14 05:52:04;;;;;;;5.2;4.7;;;;;;;22.2;26.13281;1005.479;;;;
2019/04/14 05:55:24;;;;;;;5.1;4.7;;;;;;;22.2;26.13281;1005.435;;;;
2019/04/14 05:58:38;;;;;;;4.8;4.4;;;;;;;22.2;26.13281;1005.504;;;;
2019/04/14 06:01:56;;;;;;;4.9;4.5;;;;;;;22.17;26.17871;1005.514;;;;
2019/04/14 06:05:12;;;;;;;4.6;4.3;;;;;;;22.17;26.17871;1005.587;;;;
2019/04/14 06:08:24;;;;;;;4.7;4.4;;;;;;;22.16;26.18945;1005.576;;;;
2019/04/14 06:11:41;;;;;;;4.8;4.4;;;;;;;22.17;26.17773;1005.592;;;;
2019/04/14 06:14:54;;;;;;;4.7;4.3;;;;;;;22.17;26.1543;1005.55;;;;
2019/04/14 06:18:12;;;;;;;5.3;4.9;;;;;;;22.19;26.13184;1005.592;;;;
2019/04/14 06:21:26;;;;;;;5.4;5;;;;;;;22.17;26.1543;1005.62;;;;
2019/04/14 06:24:42;;;;;;;5.3;4.9;;;;;;;22.17;26.16699;1005.651;;;;
2019/04/14 06:27:58;;;;;;;5.8;5.3;;;;;;;22.18;26.13184;1005.64;;;;
2019/04/14 06:34:49;;;;;;;5.2;4.8;;;;;;;22.18;26.14355;1005.786;;;;
2019/04/14 06:38:05;;;;;;;5.8;5.3;;;;;;;22.17;26.1543;1005.719;;;;
2019/04/14 06:41:22;;;;;;;5.8;5.3;;;;;;;22.21;26.09766;1005.648;;;;
2019/04/14 06:44:38;;;;;;;6.1;5.6;;;;;;;22.23;26.06348;1005.621;;;;
2019/04/14 06:47:52;;;;;;;5.6;5.2;;;;;;;22.23;26.05273;1005.616;;;;
2019/04/14 06:51:04;;;;;;;6;5.5;;;;;;;22.25;26.03027;1005.617;;;;
2019/04/14 06:54:19;;;;;;;5.8;5.3;;;;;;;22.24;26.00586;1005.708;;;;
2019/04/14 06:57:33;;;;;;;6;5.5;;;;;;;22.26;25.9834;1005.637;;;;
2019/04/14 07:00:49;;;;;;;6.3;5.8;;;;;;;22.27;25.97168;1005.667;;;;
2019/04/14 07:04:06;;;;;;;6.1;5.6;;;;;;;22.27;25.97266;1005.729;;;;
2019/04/14 07:07:20;;;;;;;6.2;5.7;;;;;;;22.33;25.89258;1005.717;;;;
2019/04/14 07:10:32;;;;;;;6.1;5.6;;;;;;;22.41;25.79199;1005.601;;;;
2019/04/14 07:13:48;;;;;;;6.5;5.9;;;;;;;22.47;25.71191;1005.686;;;;
2019/04/14 07:17:02;;;;;;;6.4;5.9;;;;;;;22.52;25.64355;1005.744;;;;
2019/04/14 07:20:16;;;;;;;6.8;6.2;;;;;;;22.55;25.59863;1005.765;;;;
2019/04/14 07:23:32;;;;;;;6.5;6;;;;;;;22.59;25.51855;1005.783;;;;
2019/04/14 07:26:48;;;;;;;6.5;6;;;;;;;22.59;25.51855;1005.73;;;;
2019/04/14 07:30:16;;;;;;;7.3;6.7;;;;;;;22.64;25.43945;1005.782;;;;
2019/04/14 07:33:45;;;;;;;6.7;6.1;;;;;;;22.61;25.47266;1005.798;;;;
2019/04/14 07:47:56;;;;;;;7.4;6.8;;;;;;;22.55;25.52832;1005.842;;;;
2019/04/14 07:54:52;;;;;;;7;6.4;;;;;;;22.49;25.61914;1005.795;;;;
2019/04/14 07:58:30;;;;;;;7.2;6.6;;;;;;;22.47;25.67676;1005.768;;;;
2019/04/14 08:02:04;;;;;;;7.3;6.6;;;;;;;22.48;25.65332;1005.757;;;;
2019/04/14 08:05:22;;;;;;;7.8;7.2;;;;;;;22.5;25.59668;1005.747;;;;
2019/04/14 08:08:37;;;;;;;7.8;7;;;;;;;22.46;25.66406;1005.725;;;;
2019/04/14 08:11:52;;;;;;;7.2;6.6;;;;;;;22.46;25.66504;1005.696;;;;
2019/04/14 08:15:06;;;;;;;7.5;6.9;;;;;;;22.46;25.66504;1005.668;;;;
2019/04/14 08:18:21;;;;;;;7.6;7;;;;;;;22.49;25.61914;1005.576;;;;
2019/04/14 08:21:35;;;;;;;7.9;7.2;;;;;;;22.5;25.59668;1005.692;;;;
2019/04/14 08:24:51;;;;;;;7.5;6.9;;;;;;;22.49;25.61914;1005.682;;;;
2019/04/14 08:28:07;;;;;;;7.5;6.8;;;;;;;22.49;25.61914;1005.719;;;;
2019/04/14 08:31:22;;;;;;;7.8;7.1;;;;;;;22.48;25.61816;1005.73;;;;
2019/04/14 08:34:35;;;;;;;7.8;7.1;;;;;;;22.49;25.58398;1005.745;;;;
2019/04/14 08:37:48;;;;;;;7.4;6.8;;;;;;;22.52;25.53809;1005.793;;;;
2019/04/14 08:41:02;;;;;;;7.6;7;;;;;;;22.52;25.52637;1005.781;;;;
2019/04/14 08:44:30;;;;;;;7.8;7.1;;;;;;;22.52;25.51465;1005.767;;;;
2019/04/14 08:49:04;;;;;;;7.7;7.1;;;;;;;22.57;25.43457;1005.821;;;;
2019/04/14 08:51:07;;;;;;;7.2;6.6;;;;;;;22.55;25.43457;1005.773;;;;
2019/04/14 08:54:30;;;;;;;7.9;7.2;;;;;;;22.52;25.4668;1005.799;;;;
2019/04/14 08:58:29;;;;;;;7.7;7.1;;;;;;;22.52;25.47949;1005.857;;;;
2019/04/14 09:00:14;;;;;;;7.8;7.1;;;;;;;22.54;25.44531;1005.882;;;;
2019/04/14 09:03:44;;;;;;;7.7;7.1;;;;;;;22.53;25.43359;1005.946;;;;
2019/04/14 09:07:09;;;;;;;8.2;7.5;;;;;;;22.59;25.36523;1005.957;;;;
2019/04/14 09:10:26;;;;;;;7.5;6.9;;;;;;;22.82;25.03613;1005.915;;;;
2019/04/14 09:13:39;;;;;;;8.2;7.5;;;;;;;23.13;24.51074;1005.925;;;;
2019/04/14 09:16:58;;;;;;;8.1;7.4;;;;;;;23.02;24.63477;1005.846;;;;
2019/04/14 09:20:12;;;;;;;8.7;8;;;;;;;23.18;24.4541;1005.933;;;;
2019/04/14 09:23:31;;;;;;;8.4;7.6;;;;;;;23.22;24.33789;1005.961;;;;
2019/04/14 09:26:46;;;;;;;8.4;7.7;;;;;;;23.24;24.3623;1005.948;;;;
2019/04/14 09:30:01;;;;;;;8.2;7.5;;;;;;;23.16;24.46484;1006.077;;;;
2019/04/14 09:33:16;;;;;;;8.7;8;;;;;;;22.96;24.68945;1006.041;;;;
2019/04/14 09:36:31;;;;;;;9.5;8.7;;;;;;;22.9;24.79297;1006.082;;;;
2019/04/14 09:39:46;;;;;;;8.2;7.5;;;;;;;22.9;24.81641;1006.063;;;;
2019/04/14 09:43:00;;;;;;;9.2;8.4;;;;;;;22.9;24.81641;1006.131;;;;
2019/04/14 09:46:17;;;;;;;8.5;7.8;;;;;;;22.96;24.68945;1006.109;;;;
2019/04/14 09:49:32;;;;;;;9.1;8.3;;;;;;;23.06;24.55371;1006.058;;;;
2019/04/14 09:52:46;;;;;;;8.9;8.1;;;;;;;23.06;24.55371;1006.126;;;;
2019/04/14 09:56:01;;;;;;;8.8;8.1;;;;;;;23.13;24.45117;1006.134;;;;
2019/04/14 09:59:17;;;;;;;8.9;8.2;;;;;;;23;24.60938;1006.07;;;;
2019/04/14 10:02:31;;;;;;;8.9;8.1;;;;;;;22.98;24.65527;1006.137;;;;
2019/04/14 10:05:48;;;;;;;8.9;8;;;;;;;22.96;24.5957;1006.132;;;;
2019/04/14 10:09:06;;;;;;;9.4;8.6;;;;;;;22.98;24.67871;1006.147;;;;
2019/04/14 10:12:20;;;;;;;9.1;8.3;;;;;;;23.05;24.50586;1006.096;;;;
2019/04/14 10:15:35;;;;;;;9.3;8.5;;;;;;;23.12;24.34375;1006.155;;;;
2019/04/14 10:18:49;;;;;;;9.3;8.5;;;;;;;23.12;24.34473;1006.172;;;;
2019/04/14 10:22:06;;;;;;;9.2;8.4;;;;;;;23.07;24.41211;1006.166;;;;
2019/04/14 10:25:19;;;;;;;9.9;9;;;;;;;23.03;24.45703;1006.087;;;;
2019/04/14 10:28:35;;;;;;;9.6;8.8;;;;;;;23.05;24.38867;1006.132;;;;
2019/04/14 10:31:49;;;;;;;10.3;9.4;;;;;;;23.12;24.30859;1006.159;;;;
2019/04/14 10:35:04;;;;;;;9.8;8.9;;;;;;;23.2;24.14844;1006.138;;;;
2019/04/14 10:38:19;;;;;;;10.5;9.6;;;;;;;23.33;23.97754;1006.157;;;;
2019/04/14 10:41:33;;;;;;;10.6;9.7;;;;;;;23.38;23.95703;1006.101;;;;
2019/04/14 10:44:47;;;;;;;10.5;9.5;;;;;;;23.41;23.87598;1006.146;;;;
2019/04/14 10:48:02;;;;;;;10.5;9.5;;;;;;;23.48;23.83203;1006.094;;;;
2019/04/14 10:51:16;;;;;;;10.1;9.2;;;;;;;23.49;23.80859;1006.146;;;;
2019/04/14 10:54:31;;;;;;;10.4;9.5;;;;;;;23.53;23.77539;1006.121;;;;
2019/04/14 10:57:48;;;;;;;9.6;8.7;;;;;;;23.53;23.74023;1006.139;;;;
2019/04/14 11:01:04;;;;;;;10;9.1;;;;;;;23.46;23.84277;1006.039;;;;
2019/04/14 11:04:17;;;;;;;9.9;9;;;;;;;23.41;23.8877;1006.017;;;;
2019/04/14 11:07:33;;;;;;;10.2;9.3;;;;;;;23.42;23.89941;1006.019;;;;
2019/04/14 11:10:47;;;;;;;10.6;9.5;;;;;;;23.43;23.92383;1006.09;;;;
2019/04/14 11:14:03;;;;;;;9.7;8.8;;;;;;;23.44;23.93652;1005.971;;;;
2019/04/14 11:17:18;;;;;;;10.3;9.3;;;;;;;23.45;23.88965;1005.909;;;;
2019/04/14 11:20:33;;;;;;;10;9.1;;;;;;;23.43;23.93555;1005.922;;;;
2019/04/14 11:23:47;;;;;;;9.4;8.6;;;;;;;23.36;24.0498;1005.818;;;;
2019/04/14 11:27:01;;;;;;;9.9;9;;;;;;;23.36;24.0625;1005.809;;;;
2019/04/14 11:30:17;;;;;;;9.5;8.6;;;;;;;23.42;23.99414;1005.823;;;;
2019/04/14 11:33:56;;;;;;;9.9;9;;;;;;;23.42;23.9707;1005.814;;;;
2019/04/14 11:40:29;;;;;;;9.8;8.8;;;;;;;23.44;23.94824;1005.797;;;;
2019/04/14 11:43:43;;;;;;;9.8;8.9;;;;;;;23.45;23.9248;1005.821;;;;
2019/04/14 11:46:58;;;;;;;9.7;8.8;;;;;;;23.45;23.93652;1005.849;;;;
2019/04/14 11:50:13;;;;;;;9.3;8.4;;;;;;;23.45;23.93652;1005.864;;;;
2019/04/14 11:53:27;;;;;;;9.9;9;;;;;;;23.47;23.91406;1005.85;;;;
2019/04/14 11:56:42;;;;;;;9.9;9;;;;;;;23.44;23.93652;1005.903;;;;
2019/04/14 12:00:10;;;;;;;9.8;8.9;;;;;;;23.34;24.07227;1005.878;;;;
2019/04/14 12:03:58;;;;;;;9.2;8.4;;;;;;;23.27;24.15137;1005.983;;;;
2019/04/14 12:11:09;;;;;;;10;9.1;;;;;;;23.3;24.07031;1006.046;;;;
2019/04/14 12:14:25;;;;;;;10.2;9.2;;;;;;;23.36;23.96777;1006.028;;;;
2019/04/14 12:17:38;;;;;;;10;9.1;;;;;;;23.41;23.92285;1006.054;;;;
2019/04/14 12:20:52;;;;;;;9.6;8.7;;;;;;;23.44;23.86523;1006.112;;;;
2019/04/14 12:24:08;;;;;;;10.1;9.2;;;;;;;23.47;23.83203;1006.037;;;;
2019/04/14 12:27:22;;;;;;;9.4;8.5;;;;;;;23.43;23.88867;1006.082;;;;
2019/04/14 12:30:35;;;;;;;9.7;8.9;;;;;;;23.37;23.9209;1006.094;;;;
2019/04/14 12:33:49;;;;;;;10.2;9.2;;;;;;;23.35;23.91992;1005.984;;;;
2019/04/14 12:37:03;;;;;;;9.8;8.9;;;;;;;23.37;23.9209;1006.085;;;;
2019/04/14 12:40:22;;;;;;;9.9;9;;;;;;;23.35;23.83691;1006.035;;;;
2019/04/14 12:43:43;;;;;;;10.3;9.4;;;;;;;23.34;23.84766;1005.995;;;;
2019/04/14 12:47:21;;;;;;;10.3;9.3;;;;;;;23.34;23.8125;1006.05;;;;
2019/04/14 12:50:38;;;;;;;10;9.1;;;;;;;23.33;23.7998;1006.012;;;;
2019/04/14 12:53:51;;;;;;;10.6;9.5;;;;;;;23.31;23.87109;1006.033;;;;
2019/04/14 12:57:08;;;;;;;10.1;9.2;;;;;;;23.3;23.79883;1005.972;;;;
2019/04/14 13:00:34;;;;;;;10.4;9.4;;;;;;;23.34;23.75391;1006.01;;;;
2019/04/14 13:03:46;;;;;;;10;9.1;;;;;;;23.37;23.81445;1005.967;;;;
2019/04/14 13:06:59;;;;;;;10.3;9.4;;;;;;;23.36;23.73145;1005.945;;;;
2019/04/14 13:10:12;;;;;;;10.5;9.5;;;;;;;23.33;23.72852;1005.971;;;;
2019/04/14 13:13:29;;;;;;;10;9.1;;;;;;;23.3;23.79883;1005.903;;;;
2019/04/14 13:16:43;;;;;;;9.9;9.1;;;;;;;23.28;23.77441;1005.98;;;;
2019/04/14 13:19:56;;;;;;;10;9;;;;;;;23.25;23.86719;1005.9;;;;
2019/04/14 13:23:13;;;;;;;10;9.1;;;;;;;23.21;23.90039;1005.777;;;;
2019/04/14 13:26:26;;;;;;;9.8;8.9;;;;;;;23.18;23.92188;1005.76;;;;
2019/04/14 13:29:43;;;;;;;9.2;8.4;;;;;;;23.18;23.875;1005.805;;;;
2019/04/14 13:32:56;;;;;;;10.3;9.3;;;;;;;23.19;23.89941;1005.813;;;;
2019/04/14 13:36:08;;;;;;;9.8;8.9;;;;;;;23.22;23.79395;1005.807;;;;
2019/04/14 13:39:22;;;;;;;9.6;8.7;;;;;;;23.2;23.81641;1005.792;;;;
2019/04/14 13:42:35;;;;;;;9.9;9;;;;;;;23.19;23.92285;1005.799;;;;
2019/04/14 13:45:49;;;;;;;10.1;9.1;;;;;;;23.15;23.93262;1005.801;;;;
2019/04/14 13:49:04;;;;;;;9.1;8.1;;;;;;;23.17;23.95703;1005.812;;;;
2019/04/14 13:52:21;;;;;;;9.8;9;;;;;;;23.2;23.8877;1005.843;;;;
2019/04/14 13:55:36;;;;;;;9.3;8.5;;;;;;;23.21;23.8877;1005.79;;;;
2019/04/14 13:58:49;;;;;;;9.7;8.7;;;;;;;23.22;23.83008;1005.819;;;;
2019/04/14 14:02:02;;;;;;;9.3;8.4;;;;;;;23.25;23.83105;1005.75;;;;
2019/04/14 14:05:17;;;;;;;8.7;7.9;;;;;;;23.18;23.91113;1005.709;;;;
2019/04/14 14:08:32;;;;;;;9.1;8.2;;;;;;;23.13;23.99023;1005.678;;;;
2019/04/14 14:12:00;;;;;;;9.2;8.4;;;;;;;23.06;24.08105;1005.725;;;;
2019/04/14 14:18:53;;;;;;;9.1;8.3;;;;;;;23.03;24.10254;1005.718;;;;
2019/04/14 14:22:12;;;;;;;9.2;8.4;;;;;;;23.03;24.0918;1005.743;;;;
2019/04/14 14:25:32;;;;;;;9.7;8.8;;;;;;;23.05;24.06934;1005.69;;;;
2019/04/14 14:28:46;;;;;;;8.3;7.6;;;;;;;23.04;24.03223;1005.693;;;;
2019/04/14 14:32:02;;;;;;;9;8.2;;;;;;;23.06;23.97461;1005.684;;;;
2019/04/14 14:35:15;;;;;;;9.2;8.3;;;;;;;23.03;23.89063;1005.708;;;;
2019/04/14 14:38:30;;;;;;;8.5;7.7;;;;;;;23.02;23.9375;1005.641;;;;
2019/04/14 14:41:43;;;;;;;8.6;7.8;;;;;;;22.99;23.98242;1005.625;;;;
2019/04/14 14:45:12;;;;;;;9;8.2;;;;;;;22.96;24.11133;1005.626;;;;
2019/04/14 14:48:32;;;;;;;8.5;7.7;;;;;;;22.92;24.16797;1005.594;;;;
2019/04/14 14:51:54;;;;;;;8;7.3;;;;;;;22.9;24.21387;1005.576;;;;
2019/04/14 14:55:12;;;;;;;8.4;7.6;;;;;;;22.87;24.21289;1005.553;;;;
2019/04/14 14:58:25;;;;;;;7.9;7.2;;;;;;;22.86;24.23535;1005.587;;;;
2019/04/14 15:01:38;;;;;;;7.9;7.1;;;;;;;22.88;24.20117;1005.575;;;;
2019/04/14 15:04:56;;;;;;;8.2;7.5;;;;;;;22.9;24.14355;1005.574;;;;
2019/04/14 15:08:10;;;;;;;8.6;7.8;;;;;;;22.93;24.10938;1005.605;;;;
2019/04/14 15:11:23;;;;;;;8.2;7.4;;;;;;;22.94;24.08691;1005.621;;;;
2019/04/14 15:14:37;;;;;;;8.1;7.3;;;;;;;22.94;24.07422;1005.64;;;;
2019/04/14 15:17:50;;;;;;;8;7.2;;;;;;;22.93;24.08594;1005.582;;;;
2019/04/14 15:21:04;;;;;;;8.1;7.3;;;;;;;22.93;24.07422;1005.597;;;;
2019/04/14 15:24:19;;;;;;;8.2;7.5;;;;;;;22.92;24.06152;1005.58;;;;
2019/04/14 15:27:34;;;;;;;8;7.2;;;;;;;22.91;24.04883;1005.619;;;;
2019/04/14 15:30:50;;;;;;;7.8;7.1;;;;;;;22.87;24.05957;1005.567;;;;
2019/04/14 15:34:08;;;;;;;8.1;7.4;;;;;;;22.85;24.10547;1005.534;;;;
2019/04/14 15:37:23;;;;;;;7.7;7;;;;;;;22.84;24.08105;1005.477;;;;
2019/04/14 15:40:36;;;;;;;7.4;6.7;;;;;;;22.84;24.06934;1005.478;;;;
2019/04/14 15:43:50;;;;;;;7.5;6.8;;;;;;;22.82;24.08008;1005.491;;;;
2019/04/14 15:47:04;;;;;;;7.7;6.9;;;;;;;22.8;24.0791;1005.604;;;;
2019/04/14 15:50:22;;;;;;;7.7;7;;;;;;;22.8;24.05566;1005.613;;;;
2019/04/14 15:53:37;;;;;;;8.1;7.3;;;;;;;22.81;24.04395;1005.58;;;;
2019/04/14 16:03:45;;;;;;;7.4;6.8;;;;;;;22.78;24.04199;1005.672;;;;
2019/04/14 16:07:19;;;;;;;7;6.4;;;;;;;22.75;24.0293;1005.701;;;;
2019/04/14 16:10:46;;;;;;;7.5;6.9;;;;;;;22.76;24.04199;1005.808;;;;
2019/04/14 16:17:56;;;;;;;7.6;6.9;;;;;;;22.8;23.97266;1005.75;;;;
2019/04/14 16:21:10;;;;;;;7;6.4;;;;;;;22.8;23.94922;1005.746;;;;
2019/04/14 16:24:23;;;;;;;7.5;6.8;;;;;;;22.79;23.94824;1005.693;;;;
2019/04/14 16:27:56;;;;;;;6.9;6.3;;;;;;;22.8;23.92578;1005.769;;;;
2019/04/14 16:31:32;;;;;;;7.1;6.5;;;;;;;22.79;23.9248;1005.794;;;;
2019/04/14 16:34:50;;;;;;;7.4;6.8;;;;;;;22.77;23.91211;1005.856;;;;
2019/04/14 16:38:04;;;;;;;7.1;6.5;;;;;;;22.76;23.91211;1005.813;;;;
2019/04/14 16:41:17;;;;;;;6.9;6.3;;;;;;;22.75;23.8877;1005.879;;;;
2019/04/14 16:44:33;;;;;;;7.5;6.8;;;;;;;22.74;23.88672;1005.845;;;;
2019/04/14 16:47:46;;;;;;;7.2;6.6;;;;;;;22.73;23.89844;1005.897;;;;
2019/04/14 16:51:04;;;;;;;7.3;6.7;;;;;;;22.74;23.85156;1005.85;;;;
2019/04/14 16:54:32;;;;;;;7.6;6.9;;;;;;;22.73;23.83887;1005.856;;;;
2019/04/14 17:01:39;;;;;;;7.4;6.7;;;;;;;22.7;23.84961;1005.884;;;;
2019/04/14 17:04:53;;;;;;;7.2;6.6;;;;;;;22.69;23.84863;1006.037;;;;
2019/04/14 17:08:07;;;;;;;6.9;6.3;;;;;;;22.68;23.83594;1006.109;;;;
2019/04/14 17:11:22;;;;;;;6.5;5.9;;;;;;;22.67;23.83594;1006.137;;;;
2019/04/14 17:14:48;;;;;;;7;6.3;;;;;;;22.65;23.82324;1006.232;;;;
2019/04/14 17:18:07;;;;;;;6.8;6.2;;;;;;;22.64;23.82324;1006.206;;;;
2019/04/14 17:24:35;;;;;;;7;6.4;;;;;;;22.61;23.83301;1006.241;;;;
2019/04/14 17:36:05;;;;;;;6.5;6;;;;;;;22.56;23.85352;1006.415;;;;
2019/04/14 17:38:04;;;;;;;6.8;6.2;;;;;;;22.55;23.85352;1006.443;;;;
2019/04/14 17:41:31;;;;;;;6.6;6;;;;;;;22.55;23.85254;1006.513;;;;
2019/04/14 17:56:15;;;;;;;6.3;5.8;;;;;;;22.49;23.88574;1006.757;;;;
2019/04/14 17:59:50;;;;;;;6.7;6.1;;;;;;;22.49;23.9082;1006.826;;;;
2019/04/14 18:03:11;;;;;;;6.6;6;;;;;;;22.47;23.91895;1006.898;;;;
2019/04/14 18:06:35;;;;;;;7;6.4;;;;;;;22.42;23.9873;1006.944;;;;
2019/04/14 18:09:54;;;;;;;6.8;6.1;;;;;;;22.42;24.01074;1006.963;;;;
2019/04/14 18:13:16;;;;;;;6.8;6.1;;;;;;;22.4;24.03418;1007.117;;;;
2019/04/14 18:16:48;;;;;;;6.5;6;;;;;;;22.41;24.03418;1007.174;;;;
2019/04/14 18:20:05;;;;;;;6.5;5.9;;;;;;;22.41;24.02246;1007.256;;;;
2019/04/14 18:23:21;;;;;;;6.7;6.1;;;;;;;22.41;24.03418;1007.297;;;;
2019/04/14 18:26:35;;;;;;;6.7;6.1;;;;;;;22.41;24.0459;1007.289;;;;
2019/04/14 18:30:26;;;;;;;6.9;6.3;;;;;;;22.41;24.0459;1007.338;;;;
2019/04/14 18:33:48;;;;;;;7.2;6.5;;;;;;;22.4;24.06934;1007.372;;;;
2019/04/14 18:40:42;;;;;;;7.4;6.7;;;;;;;22.39;24.0918;1007.57;;;;
2019/04/14 18:47:41;;;;;;;7.1;6.5;;;;;;;22.35;24.14941;1007.582;;;;
2019/04/14 18:51:20;;;;;;;6.2;5.7;;;;;;;22.35;24.17285;1007.701;;;;
2019/04/14 18:55:02;;;;;;;6.8;6.2;;;;;;;22.34;24.18359;1007.671;;;;
2019/04/14 19:01:51;;;;;;;6.1;5.6;;;;;;;22.33;24.21875;1007.879;;;;
2019/04/14 19:05:04;;;;;;;6.9;6.3;;;;;;;22.31;24.25293;1007.915;;;;
2019/04/14 19:08:20;;;;;;;6.6;6;;;;;;;22.31;24.26465;1008.046;;;;
2019/04/14 19:15:12;;;;;;;6.8;6.2;;;;;;;22.32;24.27637;1008.054;;;;
2019/04/14 19:18:35;;;;;;;6.7;6.1;;;;;;;22.31;24.28809;1008.134;;;;
2019/04/14 19:21:51;;;;;;;7.1;6.4;;;;;;;22.28;24.32227;1008.148;;;;
2019/04/14 19:25:10;;;;;;;6.8;6.2;;;;;;;22.28;24.32227;1008.244;;;;
2019/04/14 19:28:27;;;;;;;6.5;5.9;;;;;;;22.28;24.33398;1008.261;;;;
2019/04/14 19:31:42;;;;;;;6.8;6.2;;;;;;;22.27;24.34473;1008.309;;;;
2019/04/14 19:34:58;;;;;;;6.8;6.2;;;;;;;22.27;24.35645;1008.328;;;;
2019/04/14 19:38:18;;;;;;;6.5;6;;;;;;;22.28;24.35742;1008.367;;;;
2019/04/14 19:41:34;;;;;;;6.6;6;;;;;;;22.27;24.38086;1008.423;;;;
2019/04/14 19:44:49;;;;;;;6.8;6.2;;;;;;;22.28;24.36914;1008.445;;;;
2019/04/14 19:48:06;;;;;;;7;6.4;;;;;;;22.28;24.36914;1008.454;;;;
2019/04/14 19:51:24;;;;;;;7;6.1;;;;;;;22.27;24.39258;1008.561;;;;
2019/04/14 19:54:39;;;;;;;7;6.3;;;;;;;22.26;24.41504;1008.648;;;;
2019/04/14 19:57:55;;;;;;;7.1;6.5;;;;;;;22.26;24.41504;1008.627;;;;
2019/04/14 20:01:09;;;;;;;6.7;6.1;;;;;;;22.25;24.43848;1008.7;;;;
2019/04/14 20:04:26;;;;;;;6.9;6.3;;;;;;;22.25;24.43848;1008.747;;;;
2019/04/14 20:07:42;;;;;;;6.9;6.3;;;;;;;22.24;24.46094;1008.786;;;;
2019/04/14 20:10:57;;;;;;;6.6;5.9;;;;;;;22.22;24.47168;1008.843;;;;
2019/04/14 20:14:13;;;;;;;6.5;5.9;;;;;;;22.23;24.48438;1008.916;;;;
2019/04/14 20:17:39;;;;;;;6.8;6.2;;;;;;;22.22;24.49512;1008.903;;;;
2019/04/14 20:21:09;;;;;;;6.7;6.1;;;;;;;22.24;24.47363;1008.93;;;;
2019/04/14 20:24:31;;;;;;;6.7;6;;;;;;;22.23;24.47266;1008.955;;;;
2019/04/14 20:27:53;;;;;;;6.8;6.1;;;;;;;22.2;24.51855;1009.006;;;;
2019/04/14 20:31:52;;;;;;;6.6;6;;;;;;;22.22;24.51855;1008.968;;;;
2019/04/14 20:33:34;;;;;;;6.3;5.8;;;;;;;22.2;24.54102;1009.062;;;;
2019/04/14 20:36:48;;;;;;;6.8;6.2;;;;;;;22.19;24.54102;1009.126;;;;
2019/04/14 20:40:05;;;;;;;6.8;6.2;;;;;;;22.2;24.54199;1009.039;;;;
2019/04/14 20:43:17;;;;;;;6.7;6.1;;;;;;;22.18;24.56445;1009.084;;;;
2019/04/14 20:46:33;;;;;;;6.7;6.1;;;;;;;22.18;24.56445;1009.08;;;;
2019/04/14 20:49:50;;;;;;;6.2;5.7;;;;;;;22.17;24.5752;1009.145;;;;
2019/04/14 20:53:05;;;;;;;6.4;5.8;;;;;;;22.18;24.56445;1009.165;;;;